sensor_id;sensor_type;location;lat;lon;timestamp;pressure;altitude;pressure_sealevel;temperature;humidity
71504;BME280;59323;50.874;7.028;2022-10-16T00:01:15;100858.19;;;14.03;93.04
71504;BME280;59323;50.874;7.028;2022-10-16T00:03:42;100874.59;;;14.10;93.07
71504;BME280;59323;50.874;7.028;2022-10-16T00:06:09;100862.50;;;14.08;92.91
71504;BME280;59323;50.874;7.028;2022-10-16T00:08:35;100873.44;;;14.11;92.93
71504;BME280;59323;50.874;7.028;2022-10-16T00:11:32;100872.66;;;14.11;93.04
71504;BME280;59323;50.874;7.028;2022-10-16T00:14:13;100877.34;;;14.10;92.73
71504;BME280;59323;50.874;7.028;2022-10-16T00:16:39;100873.41;;;14.08;92.75
71504;BME280;59323;50.874;7.028;2022-10-16T00:19:04;100869.53;;;14.09;93.03
71504;BME280;59323;50.874;7.028;2022-10-16T00:21:33;100866.00;;;14.05;92.96
71504;BME280;59323;50.874;7.028;2022-10-16T00:24:01;100871.47;;;14.05;92.36
71504;BME280;59323;50.874;7.028;2022-10-16T00:26:28;100874.97;;;14.02;92.80
71504;BME280;59323;50.874;7.028;2022-10-16T00:28:54;100876.91;;;14.01;93.08
71504;BME280;59323;50.874;7.028;2022-10-16T00:31:21;100883.56;;;14.04;92.89
71504;BME280;59323;50.874;7.028;2022-10-16T00:33:47;100880.03;;;14.00;92.35
71504;BME280;59323;50.874;7.028;2022-10-16T00:36:15;100882.78;;;14.03;92.15
71504;BME280;59323;50.874;7.028;2022-10-16T00:38:41;100877.28;;;14.00;92.00
71504;BME280;59323;50.874;7.028;2022-10-16T00:41:09;100885.50;;;14.03;91.73
71504;BME280;59323;50.874;7.028;2022-10-16T00:43:45;100872.63;;;14.07;92.01
71504;BME280;59323;50.874;7.028;2022-10-16T00:46:25;100858.94;;;14.00;91.91
71504;BME280;59323;50.874;7.028;2022-10-16T00:49:01;100873.41;;;14.08;91.83
71504;BME280;59323;50.874;7.028;2022-10-16T00:51:35;100877.72;;;14.09;91.33
71504;BME280;59323;50.874;7.028;2022-10-16T00:54:04;100875.38;;;14.07;91.74
71504;BME280;59323;50.874;7.028;2022-10-16T00:56:31;100889.81;;;14.04;91.63
71504;BME280;59323;50.874;7.028;2022-10-16T00:58:58;100887.84;;;14.01;91.99
71504;BME280;59323;50.874;7.028;2022-10-16T01:01:25;100871.44;;;13.98;91.94
71504;BME280;59323;50.874;7.028;2022-10-16T01:03:50;100869.47;;;13.94;91.98
71504;BME280;59323;50.874;7.028;2022-10-16T01:06:23;100873.38;;;13.97;91.96
71504;BME280;59323;50.874;7.028;2022-10-16T01:09:04;100877.28;;;13.96;92.16
71504;BME280;59323;50.874;7.028;2022-10-16T01:11:38;100884.28;;;13.93;91.92
71504;BME280;59323;50.874;7.028;2022-10-16T01:14:15;100877.25;;;13.89;92.27
71504;BME280;59323;50.874;7.028;2022-10-16T01:16:51;100863.94;;;13.84;92.71
71504;BME280;59323;50.874;7.028;2022-10-16T01:22:05;100888.16;;;13.85;92.72
71504;BME280;59323;50.874;7.028;2022-10-16T01:24:38;100890.84;;;13.78;92.73
71504;BME280;59323;50.874;7.028;2022-10-16T01:27:27;100902.56;;;13.79;93.48
71504;BME280;59323;50.874;7.028;2022-10-16T01:29:56;100900.19;;;13.74;93.39
71504;BME280;59323;50.874;7.028;2022-10-16T01:32:31;100902.13;;;13.73;93.49
71504;BME280;59323;50.874;7.028;2022-10-16T01:35:05;100886.50;;;13.70;93.83
71504;BME280;59323;50.874;7.028;2022-10-16T01:37:41;100893.53;;;13.68;93.77
71504;BME280;59323;50.874;7.028;2022-10-16T01:40:12;100890.34;;;13.62;94.10
71504;BME280;59323;50.874;7.028;2022-10-16T01:42:43;100876.69;;;13.62;94.22
71504;BME280;59323;50.874;7.028;2022-10-16T01:45:13;100904.41;;;13.64;94.16
71504;BME280;59323;50.874;7.028;2022-10-16T01:47:40;100897.31;;;13.56;94.57
71504;BME280;59323;50.874;7.028;2022-10-16T01:50:08;100904.72;;;13.55;94.51
71504;BME280;59323;50.874;7.028;2022-10-16T01:52:37;100893.03;;;13.55;94.12
71504;BME280;59323;50.874;7.028;2022-10-16T01:55:05;100890.69;;;13.53;94.13
71504;BME280;59323;50.874;7.028;2022-10-16T01:57:33;100900.84;;;13.56;94.82
71504;BME280;59323;50.874;7.028;2022-10-16T02:00:05;100899.28;;;13.55;94.93
71504;BME280;59323;50.874;7.028;2022-10-16T02:02:33;100900.06;;;13.56;94.73
71504;BME280;59323;50.874;7.028;2022-10-16T02:05:12;100896.13;;;13.53;95.00
71504;BME280;59323;50.874;7.028;2022-10-16T02:07:39;100903.53;;;13.53;95.14
71504;BME280;59323;50.874;7.028;2022-10-16T02:10:06;100903.91;;;13.48;95.26
71504;BME280;59323;50.874;7.028;2022-10-16T02:12:33;100908.59;;;13.51;95.32
71504;BME280;59323;50.874;7.028;2022-10-16T02:15:00;100907.03;;;13.50;95.33
71504;BME280;59323;50.874;7.028;2022-10-16T02:17:26;100917.97;;;13.50;95.65
71504;BME280;59323;50.874;7.028;2022-10-16T02:19:54;100906.63;;;13.48;95.26
71504;BME280;59323;50.874;7.028;2022-10-16T02:22:30;100918.75;;;13.50;95.29
71504;BME280;59323;50.874;7.028;2022-10-16T02:25:08;100921.09;;;13.52;95.19
71504;BME280;59323;50.874;7.028;2022-10-16T02:27:56;100903.91;;;13.48;95.14
71504;BME280;59323;50.874;7.028;2022-10-16T02:32:58;100903.91;;;13.48;95.30
71504;BME280;59323;50.874;7.028;2022-10-16T02:35:25;100908.19;;;13.49;95.04
71504;BME280;59323;50.874;7.028;2022-10-16T02:37:53;100907.81;;;13.50;95.29
71504;BME280;59323;50.874;7.028;2022-10-16T02:40:19;100915.63;;;13.52;95.32
71504;BME280;59323;50.874;7.028;2022-10-16T02:42:52;100916.38;;;13.49;95.67
71504;BME280;59323;50.874;7.028;2022-10-16T02:45:18;100927.34;;;13.52;95.71
71504;BME280;59323;50.874;7.028;2022-10-16T02:47:43;100921.09;;;13.52;95.65
71504;BME280;59323;50.874;7.028;2022-10-16T02:50:09;100912.09;;;13.48;95.43
71504;BME280;59323;50.874;7.028;2022-10-16T02:52:34;100903.09;;;13.44;95.47
71504;BME280;59323;50.874;7.028;2022-10-16T02:55:00;100905.41;;;13.42;95.55
71504;BME280;59323;50.874;7.028;2022-10-16T02:57:25;100910.09;;;13.41;95.83
71504;BME280;59323;50.874;7.028;2022-10-16T02:59:51;100925.38;;;13.49;95.88
71504;BME280;59323;50.874;7.028;2022-10-16T03:02:16;100923.00;;;13.44;95.93
71504;BME280;59323;50.874;7.028;2022-10-16T03:04:42;100927.34;;;13.52;95.92
71504;BME280;59323;50.874;7.028;2022-10-16T03:07:07;100916.38;;;13.45;95.99
71504;BME280;59323;50.874;7.028;2022-10-16T03:09:33;100912.84;;;13.45;95.74
71504;BME280;59323;50.874;7.028;2022-10-16T03:11:58;100919.91;;;13.49;95.44
71504;BME280;59323;50.874;7.028;2022-10-16T03:14:23;100910.94;;;13.52;95.39
71504;BME280;59323;50.874;7.028;2022-10-16T03:16:49;100907.81;;;13.50;95.64
71504;BME280;59323;50.874;7.028;2022-10-16T03:19:16;100912.50;;;13.50;95.71
71504;BME280;59323;50.874;7.028;2022-10-16T03:21:41;100908.97;;;13.49;95.85
71504;BME280;59323;50.874;7.028;2022-10-16T03:24:07;100903.09;;;13.44;95.70
71504;BME280;59323;50.874;7.028;2022-10-16T03:26:32;100906.22;;;13.46;95.72
71504;BME280;59323;50.874;7.028;2022-10-16T03:28:58;100919.88;;;13.46;95.77
71504;BME280;59323;50.874;7.028;2022-10-16T03:31:23;100916.72;;;13.40;96.07
71504;BME280;59323;50.874;7.028;2022-10-16T03:33:48;100910.88;;;13.42;96.27
71504;BME280;59323;50.874;7.028;2022-10-16T03:36:14;100904.63;;;13.41;96.42
71504;BME280;59323;50.874;7.028;2022-10-16T03:38:39;100899.59;;;13.43;95.77
71504;BME280;59323;50.874;7.028;2022-10-16T03:41:04;100900.38;;;13.44;96.09
71504;BME280;59323;50.874;7.028;2022-10-16T03:43:30;100907.03;;;13.50;95.79
71504;BME280;59323;50.874;7.028;2022-10-16T03:45:55;100900.38;;;13.47;95.95
71504;BME280;59323;50.874;7.028;2022-10-16T03:48:21;100910.94;;;13.49;95.25
71504;BME280;59323;50.874;7.028;2022-10-16T03:50:46;100912.84;;;13.45;95.72
71504;BME280;59323;50.874;7.028;2022-10-16T03:53:14;100907.78;;;13.43;95.75
71504;BME280;59323;50.874;7.028;2022-10-16T03:55:41;100926.53;;;13.48;95.68
71504;BME280;59323;50.874;7.028;2022-10-16T03:58:07;100940.16;;;13.45;95.53
71504;BME280;59323;50.874;7.028;2022-10-16T04:00:32;100946.75;;;13.40;95.56
71504;BME280;59323;50.874;7.028;2022-10-16T04:02:57;100935.03;;;13.40;95.58
71504;BME280;59323;50.874;7.028;2022-10-16T04:05:23;100965.91;;;13.47;95.48
71504;BME280;59323;50.874;7.028;2022-10-16T04:07:49;100958.44;;;13.41;95.44
71504;BME280;59323;50.874;7.028;2022-10-16T04:10:14;100943.22;;;13.40;95.30
71504;BME280;59323;50.874;7.028;2022-10-16T04:12:39;100954.19;;;13.43;94.97
71504;BME280;59323;50.874;7.028;2022-10-16T04:15:05;100949.50;;;13.44;95.18
71504;BME280;59323;50.874;7.028;2022-10-16T04:17:30;100939.38;;;13.48;95.25
71504;BME280;59323;50.874;7.028;2022-10-16T04:19:56;100936.28;;;13.49;95.04
71504;BME280;59323;50.874;7.028;2022-10-16T04:22:21;100940.19;;;13.48;94.82
71504;BME280;59323;50.874;7.028;2022-10-16T04:24:47;100956.97;;;13.50;94.97
71504;BME280;59323;50.874;7.028;2022-10-16T04:27:12;100965.19;;;13.54;94.74
71504;BME280;59323;50.874;7.028;2022-10-16T04:29:37;100956.94;;;13.47;94.64
71504;BME280;59323;50.874;7.028;2022-10-16T04:32:03;100959.69;;;13.50;94.69
71504;BME280;59323;50.874;7.028;2022-10-16T04:34:28;100969.88;;;13.57;94.17
71504;BME280;59323;50.874;7.028;2022-10-16T04:36:53;100971.41;;;13.54;94.26
71504;BME280;59323;50.874;7.028;2022-10-16T04:39:19;100967.50;;;13.52;94.14
71504;BME280;59323;50.874;7.028;2022-10-16T04:41:44;100971.44;;;13.58;93.82
71504;BME280;59323;50.874;7.028;2022-10-16T04:44:09;100970.28;;;13.59;93.88
71504;BME280;59323;50.874;7.028;2022-10-16T04:46:35;100974.59;;;13.60;93.79
71504;BME280;59323;50.874;7.028;2022-10-16T04:49:00;100966.78;;;13.58;94.10
71504;BME280;59323;50.874;7.028;2022-10-16T04:51:26;100969.91;;;13.60;93.36
71504;BME280;59323;50.874;7.028;2022-10-16T04:53:53;100974.66;;;13.67;92.92
71504;BME280;59323;50.874;7.028;2022-10-16T04:56:19;100980.13;;;13.67;93.04
71504;BME280;59323;50.874;7.028;2022-10-16T04:58:45;100969.16;;;13.63;92.86
71504;BME280;59323;50.874;7.028;2022-10-16T05:01:11;100978.56;;;13.66;92.77
71504;BME280;59323;50.874;7.028;2022-10-16T05:03:36;100980.84;;;13.64;93.01
71504;BME280;59323;50.874;7.028;2022-10-16T05:06:01;100992.13;;;13.59;93.20
71504;BME280;59323;50.874;7.028;2022-10-16T05:08:29;101003.09;;;13.62;93.08
71504;BME280;59323;50.874;7.028;2022-10-16T05:10:54;100996.78;;;13.55;93.15
71504;BME280;59323;50.874;7.028;2022-10-16T05:13:19;100997.25;;;13.64;93.16
71504;BME280;59323;50.874;7.028;2022-10-16T05:15:48;100992.13;;;13.59;93.34
71504;BME280;59323;50.874;7.028;2022-10-16T05:18:14;100984.72;;;13.59;93.05
71504;BME280;59323;50.874;7.028;2022-10-16T05:20:40;100991.00;;;13.63;93.22
71504;BME280;59323;50.874;7.028;2022-10-16T05:23:05;101001.91;;;13.63;93.08
71504;BME280;59323;50.874;7.028;2022-10-16T05:25:31;101001.09;;;13.59;92.78
71504;BME280;59323;50.874;7.028;2022-10-16T05:27:56;101001.50;;;13.61;93.16
71504;BME280;59323;50.874;7.028;2022-10-16T05:30:21;101001.97;;;13.67;92.91
71504;BME280;59323;50.874;7.028;2022-10-16T05:32:48;100992.56;;;13.64;93.13
71504;BME280;59323;50.874;7.028;2022-10-16T05:35:15;100999.94;;;13.60;93.03
71504;BME280;59323;50.874;7.028;2022-10-16T05:37:40;101014.38;;;13.61;92.95
71504;BME280;59323;50.874;7.028;2022-10-16T05:40:06;101006.59;;;13.63;93.23
71504;BME280;59323;50.874;7.028;2022-10-16T05:42:32;101009.69;;;13.58;93.43
71504;BME280;59323;50.874;7.028;2022-10-16T05:44:57;101021.00;;;13.60;93.50
71504;BME280;59323;50.874;7.028;2022-10-16T05:47:22;101000.28;;;13.55;93.44
71504;BME280;59323;50.874;7.028;2022-10-16T05:49:48;100999.50;;;13.55;93.39
71504;BME280;59323;50.874;7.028;2022-10-16T05:52:13;101017.44;;;13.52;93.42
71504;BME280;59323;50.874;7.028;2022-10-16T05:54:38;101010.75;;;13.46;93.77
71504;BME280;59323;50.874;7.028;2022-10-16T05:57:04;101034.97;;;13.51;93.98
71504;BME280;59323;50.874;7.028;2022-10-16T05:59:31;101030.66;;;13.47;93.86
71504;BME280;59323;50.874;7.028;2022-10-16T06:01:56;101039.59;;;13.44;93.93
71504;BME280;59323;50.874;7.028;2022-10-16T06:04:21;101042.31;;;13.44;94.13
71504;BME280;59323;50.874;7.028;2022-10-16T06:06:47;101052.88;;;13.45;94.29
71504;BME280;59323;50.874;7.028;2022-10-16T06:09:12;101055.22;;;13.47;93.74
71504;BME280;59323;50.874;7.028;2022-10-16T06:11:37;101048.94;;;13.43;94.28
71504;BME280;59323;50.874;7.028;2022-10-16T06:14:03;101058.69;;;13.44;94.84
71504;BME280;59323;50.874;7.028;2022-10-16T06:16:35;101061.38;;;13.37;94.86
71504;BME280;59323;50.874;7.028;2022-10-16T06:19:01;101074.22;;;13.36;94.84
71504;BME280;59323;50.874;7.028;2022-10-16T06:21:28;101078.91;;;13.36;94.89
71504;BME280;59323;50.874;7.028;2022-10-16T06:23:55;101077.31;;;13.35;94.79
71504;BME280;59323;50.874;7.028;2022-10-16T06:26:22;101069.94;;;13.35;95.32
71504;BME280;59323;50.874;7.028;2022-10-16T06:28:49;101061.28;;;13.29;95.52
71504;BME280;59323;50.874;7.028;2022-10-16T06:31:15;101060.88;;;13.27;95.28
71504;BME280;59323;50.874;7.028;2022-10-16T06:33:41;101075.34;;;13.31;95.79
71504;BME280;59323;50.874;7.028;2022-10-16T06:36:09;101060.88;;;13.27;95.64
71504;BME280;59323;50.874;7.028;2022-10-16T06:38:35;101084.34;;;13.36;95.86
71504;BME280;59323;50.874;7.028;2022-10-16T06:41:03;101096.44;;;13.35;95.67
71504;BME280;59323;50.874;7.028;2022-10-16T06:43:29;101102.28;;;13.33;95.96
71504;BME280;59323;50.874;7.028;2022-10-16T06:45:59;101103.91;;;13.41;95.98
71504;BME280;59323;50.874;7.028;2022-10-16T06:48:24;101106.72;;;13.48;96.41
71504;BME280;59323;50.874;7.028;2022-10-16T06:51:05;101108.63;;;13.44;96.69
71504;BME280;59323;50.874;7.028;2022-10-16T06:53:35;101114.13;;;13.48;96.70
71504;BME280;59323;50.874;7.028;2022-10-16T06:56:27;101115.75;;;13.56;96.64
71504;BME280;59323;50.874;7.028;2022-10-16T06:58:54;101111.91;;;13.60;96.41
71504;BME280;59323;50.874;7.028;2022-10-16T07:01:22;101115.84;;;13.63;96.37
71504;BME280;59323;50.874;7.028;2022-10-16T07:03:49;101135.47;;;13.72;96.49
71504;BME280;59323;50.874;7.028;2022-10-16T07:06:17;101142.91;;;13.75;96.52
71504;BME280;59323;50.874;7.028;2022-10-16T07:08:44;101135.53;;;13.79;96.34
71504;BME280;59323;50.874;7.028;2022-10-16T07:11:12;101124.19;;;13.77;96.57
71504;BME280;59323;50.874;7.028;2022-10-16T07:13:40;101142.63;;;13.87;96.06
71504;BME280;59323;50.874;7.028;2022-10-16T07:16:10;101136.41;;;13.90;96.35
71504;BME280;59323;50.874;7.028;2022-10-16T07:18:36;101150.47;;;13.92;96.20
71504;BME280;59323;50.874;7.028;2022-10-16T07:21:08;101151.31;;;14.00;96.32
71504;BME280;59323;50.874;7.028;2022-10-16T07:23:35;101161.56;;;14.10;96.05
71504;BME280;59323;50.874;7.028;2022-10-16T07:26:00;101176.81;;;14.15;95.66
71504;BME280;59323;50.874;7.028;2022-10-16T07:28:26;101179.63;;;14.25;95.36
71504;BME280;59323;50.874;7.028;2022-10-16T07:30:52;101194.13;;;14.29;94.97
71504;BME280;59323;50.874;7.028;2022-10-16T07:33:17;101175.34;;;14.24;95.09
71504;BME280;59323;50.874;7.028;2022-10-16T07:35:53;101190.19;;;14.27;95.05
71504;BME280;59323;50.874;7.028;2022-10-16T07:38:19;101194.19;;;14.33;95.02
71504;BME280;59323;50.874;7.028;2022-10-16T07:40:45;101188.72;;;14.33;94.87
71504;BME280;59323;50.874;7.028;2022-10-16T07:43:11;101190.72;;;14.40;95.05
71504;BME280;59323;50.874;7.028;2022-10-16T07:45:37;101193.50;;;14.43;95.12
71504;BME280;59323;50.874;7.028;2022-10-16T07:48:03;101200.63;;;14.55;94.82
71504;BME280;59323;50.874;7.028;2022-10-16T07:50:29;101210.44;;;14.59;94.48
71504;BME280;59323;50.874;7.028;2022-10-16T07:52:54;101216.31;;;14.65;94.75
71504;BME280;59323;50.874;7.028;2022-10-16T07:55:19;101222.66;;;14.76;94.32
71504;BME280;59323;50.874;7.028;2022-10-16T07:57:45;101219.94;;;14.80;94.02
71504;BME280;59323;50.874;7.028;2022-10-16T08:00:10;101220.31;;;14.75;93.82
71504;BME280;59323;50.874;7.028;2022-10-16T08:02:39;101231.28;;;14.82;93.36
71504;BME280;59323;50.874;7.028;2022-10-16T08:05:05;101239.53;;;14.89;93.34
71504;BME280;59323;50.874;7.028;2022-10-16T08:07:31;101217.69;;;14.93;93.23
71504;BME280;59323;50.874;7.028;2022-10-16T08:09:56;101230.19;;;14.94;92.29
71504;BME280;59323;50.874;7.028;2022-10-16T08:12:23;101240.94;;;15.20;91.98
71504;BME280;59323;50.874;7.028;2022-10-16T08:14:48;101233.56;;;15.38;91.16
71504;BME280;59323;50.874;7.028;2022-10-16T08:20:24;101244.03;;;16.12;88.78
71504;BME280;59323;50.874;7.028;2022-10-16T08:23:02;101246.03;;;16.40;87.82
71504;BME280;59323;50.874;7.028;2022-10-16T08:25:28;101248.38;;;16.60;85.60
71504;BME280;59323;50.874;7.028;2022-10-16T08:27:53;101248.38;;;16.85;83.10
71504;BME280;59323;50.874;7.028;2022-10-16T08:30:20;101266.81;;;17.05;82.90
71504;BME280;59323;50.874;7.028;2022-10-16T08:32:46;101267.13;;;17.32;82.59
71504;BME280;59323;50.874;7.028;2022-10-16T08:35:13;101266.28;;;17.60;81.52
71504;BME280;59323;50.874;7.028;2022-10-16T08:37:39;101266.53;;;17.91;79.95
71504;BME280;59323;50.874;7.028;2022-10-16T08:40:06;101274.22;;;18.24;79.27
71504;BME280;59323;50.874;7.028;2022-10-16T08:45:42;101286.44;;;18.75;75.01
71504;BME280;59323;50.874;7.028;2022-10-16T08:48:30;101287.38;;;19.03;75.92
71504;BME280;59323;50.874;7.028;2022-10-16T08:51:01;101289.53;;;19.22;74.34
71504;BME280;59323;50.874;7.028;2022-10-16T08:53:46;101285.19;;;19.24;71.65
71504;BME280;59323;50.874;7.028;2022-10-16T08:56:14;101295.63;;;19.40;73.00
71504;BME280;59323;50.874;7.028;2022-10-16T08:58:48;101292.34;;;19.56;71.71
71504;BME280;59323;50.874;7.028;2022-10-16T09:01:16;101293.69;;;19.75;70.02
71504;BME280;59323;50.874;7.028;2022-10-16T09:17:17;101297.69;;;20.01;65.26
71504;BME280;59323;50.874;7.028;2022-10-16T09:19:52;101297.59;;;20.08;65.69
71504;BME280;59323;50.874;7.028;2022-10-16T09:22:21;101294.28;;;20.20;64.61
71504;BME280;59323;50.874;7.028;2022-10-16T09:24:50;101304.31;;;20.34;63.73
71504;BME280;59323;50.874;7.028;2022-10-16T09:27:16;101300.47;;;20.27;64.12
71504;BME280;59323;50.874;7.028;2022-10-16T09:29:50;101291.25;;;20.38;64.31
71504;BME280;59323;50.874;7.028;2022-10-16T09:32:19;101293.03;;;20.51;64.05
71504;BME280;59323;50.874;7.028;2022-10-16T09:34:50;101290.75;;;20.70;63.69
71504;BME280;59323;50.874;7.028;2022-10-16T09:37:22;101291.47;;;20.74;63.08
71504;BME280;59323;50.874;7.028;2022-10-16T09:39:55;101298.47;;;20.82;62.35
71504;BME280;59323;50.874;7.028;2022-10-16T09:44:49;101296.50;;;20.82;62.56
71504;BME280;59323;50.874;7.028;2022-10-16T09:47:25;101297.44;;;20.96;61.24
71504;BME280;59323;50.874;7.028;2022-10-16T09:49:58;101310.47;;;20.95;60.27
71504;BME280;59323;50.874;7.028;2022-10-16T09:52:28;101295.66;;;20.85;60.42
71504;BME280;59323;50.874;7.028;2022-10-16T09:55:09;101319.13;;;20.97;61.26
71504;BME280;59323;50.874;7.028;2022-10-16T09:57:51;101314.09;;;20.92;60.62
71504;BME280;59323;50.874;7.028;2022-10-16T10:00:18;101323.63;;;20.87;61.05
71504;BME280;59323;50.874;7.028;2022-10-16T10:02:47;101305.97;;;20.81;60.89
71504;BME280;59323;50.874;7.028;2022-10-16T10:05:25;101324.31;;;20.68;59.08
71504;BME280;59323;50.874;7.028;2022-10-16T10:07:56;101315.91;;;20.52;59.15
71504;BME280;59323;50.874;7.028;2022-10-16T10:10:26;101306.09;;;20.20;60.57
71504;BME280;59323;50.874;7.028;2022-10-16T10:12:53;101309.31;;;20.15;61.89
71504;BME280;59323;50.874;7.028;2022-10-16T10:15:19;101300.28;;;20.11;60.40
71504;BME280;59323;50.874;7.028;2022-10-16T10:20:32;101298.06;;;20.03;60.51
71504;BME280;59323;50.874;7.028;2022-10-16T10:23:00;101291.38;;;20.00;61.64
71504;BME280;59323;50.874;7.028;2022-10-16T10:25:57;101288.72;;;19.93;62.12
71504;BME280;59323;50.874;7.028;2022-10-16T10:31:21;101284.88;;;19.56;62.49
71504;BME280;59323;50.874;7.028;2022-10-16T10:37:09;101289.25;;;19.47;62.57
71504;BME280;59323;50.874;7.028;2022-10-16T10:39:44;101292.84;;;19.44;63.02
71504;BME280;59323;50.874;7.028;2022-10-16T10:45:18;101305.19;;;19.70;62.42
71504;BME280;59323;50.874;7.028;2022-10-16T10:48:06;101311.31;;;19.84;61.83
71504;BME280;59323;50.874;7.028;2022-10-16T10:50:54;101301.84;;;19.85;59.67
71504;BME280;59323;50.874;7.028;2022-10-16T10:53:31;101300.13;;;19.95;59.11
71504;BME280;59323;50.874;7.028;2022-10-16T10:56:20;101291.28;;;20.07;58.39
71504;BME280;59323;50.874;7.028;2022-10-16T11:01:52;101294.59;;;19.95;59.35
71504;BME280;59323;50.874;7.028;2022-10-16T11:07:25;101300.63;;;20.17;56.74
71504;BME280;59323;50.874;7.028;2022-10-16T11:10:01;101308.03;;;20.23;56.02
71504;BME280;59323;50.874;7.028;2022-10-16T11:12:38;101302.94;;;20.22;56.38
71504;BME280;59323;50.874;7.028;2022-10-16T11:15:27;101298.44;;;20.32;55.13
71504;BME280;59323;50.874;7.028;2022-10-16T11:23:18;101307.31;;;20.46;53.02
71504;BME280;59323;50.874;7.028;2022-10-16T11:25:48;101310.06;;;20.46;53.34
71504;BME280;59323;50.874;7.028;2022-10-16T11:37:18;101312.25;;;20.32;55.59
71504;BME280;59323;50.874;7.028;2022-10-16T11:39:46;101306.84;;;20.24;54.91
71504;BME280;59323;50.874;7.028;2022-10-16T11:42:19;101312.94;;;20.39;55.89
71504;BME280;59323;50.874;7.028;2022-10-16T11:45:56;101310.50;;;20.45;54.42
71504;BME280;59323;50.874;7.028;2022-10-16T11:48:41;101307.25;;;20.50;53.60
71504;BME280;59323;50.874;7.028;2022-10-16T11:51:22;101316.16;;;20.61;54.21
71504;BME280;59323;50.874;7.028;2022-10-16T11:56:39;101323.63;;;20.87;55.58
71504;BME280;59323;50.874;7.028;2022-10-16T11:59:20;101318.41;;;20.93;54.55
71504;BME280;59323;50.874;7.028;2022-10-16T12:01:57;101326.22;;;20.98;54.52
71504;BME280;59323;50.874;7.028;2022-10-16T12:05:00;101325.50;;;20.94;53.61
71504;BME280;59323;50.874;7.028;2022-10-16T12:07:33;101330.97;;;20.98;52.49
71504;BME280;59323;50.874;7.028;2022-10-16T12:10:17;101321.28;;;20.86;55.16
71504;BME280;59323;50.874;7.028;2022-10-16T12:12:43;101322.50;;;20.85;55.42
71504;BME280;59323;50.874;7.028;2022-10-16T12:15:32;101328.88;;;20.82;54.94
71504;BME280;59323;50.874;7.028;2022-10-16T12:17:58;101325.88;;;20.69;55.54
71504;BME280;59323;50.874;7.028;2022-10-16T12:20:31;101318.03;;;20.68;56.56
71504;BME280;59323;50.874;7.028;2022-10-16T12:23:02;101318.69;;;20.75;55.61
71504;BME280;59323;50.874;7.028;2022-10-16T12:25:36;101317.47;;;20.76;55.52
71504;BME280;59323;50.874;7.028;2022-10-16T12:28:05;101306.00;;;20.78;56.28
71504;BME280;59323;50.874;7.028;2022-10-16T12:30:34;101316.28;;;20.77;53.68
71504;BME280;59323;50.874;7.028;2022-10-16T12:33:05;101314.38;;;20.74;55.40
71504;BME280;59323;50.874;7.028;2022-10-16T12:35:43;101311.13;;;20.79;55.24
71504;BME280;59323;50.874;7.028;2022-10-16T12:38:37;101305.28;;;20.74;55.39
71504;BME280;59323;50.874;7.028;2022-10-16T12:41:08;101301.16;;;20.62;54.57
71504;BME280;59323;50.874;7.028;2022-10-16T12:43:46;101307.31;;;20.46;56.46
71504;BME280;59323;50.874;7.028;2022-10-16T12:48:45;101295.25;;;20.33;54.80
71504;BME280;59323;50.874;7.028;2022-10-16T12:54:00;101292.31;;;20.20;55.32
71504;BME280;59323;50.874;7.028;2022-10-16T13:05:35;101312.78;;;20.23;56.49
71504;BME280;59323;50.874;7.028;2022-10-16T13:13:43;101297.41;;;20.22;57.79
71504;BME280;59323;50.874;7.028;2022-10-16T13:16:42;101309.66;;;20.21;56.88
71504;BME280;59323;50.874;7.028;2022-10-16T13:20:06;101297.91;;;20.13;56.65
71504;BME280;59323;50.874;7.028;2022-10-16T13:25:05;101319.75;;;20.01;59.07
71504;BME280;59323;50.874;7.028;2022-10-16T13:27:54;101318.19;;;20.00;59.13
71504;BME280;59323;50.874;7.028;2022-10-16T13:30:29;101315.03;;;20.01;57.67
71504;BME280;59323;50.874;7.028;2022-10-16T13:35:31;101316.63;;;19.99;57.96
71504;BME280;59323;50.874;7.028;2022-10-16T13:38:16;101313.50;;;19.97;57.90
71504;BME280;59323;50.874;7.028;2022-10-16T13:40:53;101321.38;;;19.98;58.29
71504;BME280;59323;50.874;7.028;2022-10-16T13:43:50;101318.28;;;19.92;59.23
71504;BME280;59323;50.874;7.028;2022-10-16T13:46:20;101317.59;;;19.85;58.45
71504;BME280;59323;50.874;7.028;2022-10-16T13:49:04;101318.38;;;19.85;59.62
71504;BME280;59323;50.874;7.028;2022-10-16T13:51:36;101323.13;;;19.85;59.73
71504;BME280;59323;50.874;7.028;2022-10-16T13:54:20;101311.31;;;19.84;59.26
71504;BME280;59323;50.874;7.028;2022-10-16T13:56:51;101309.78;;;19.80;59.44
71504;BME280;59323;50.874;7.028;2022-10-16T13:59:35;101295.25;;;19.76;60.05
71504;BME280;59323;50.874;7.028;2022-10-16T14:02:31;101309.41;;;19.78;60.35
71504;BME280;59323;50.874;7.028;2022-10-16T14:05:10;101300.81;;;19.72;60.19
71504;BME280;59323;50.874;7.028;2022-10-16T14:07:47;101299.63;;;19.73;60.77
71504;BME280;59323;50.874;7.028;2022-10-16T14:10:59;101308.00;;;19.66;60.83
71504;BME280;59323;50.874;7.028;2022-10-16T14:16:08;101305.31;;;19.59;61.48
71504;BME280;59323;50.874;7.028;2022-10-16T14:19:14;101317.03;;;19.67;61.13
71504;BME280;59323;50.874;7.028;2022-10-16T14:21:43;101302.88;;;19.65;61.46
71504;BME280;59323;50.874;7.028;2022-10-16T14:24:26;101298.16;;;19.65;62.03
71504;BME280;59323;50.874;7.028;2022-10-16T14:26:54;101298.94;;;19.66;62.01
71504;BME280;59323;50.874;7.028;2022-10-16T14:29:22;101292.31;;;19.59;61.48
71504;BME280;59323;50.874;7.028;2022-10-16T14:32:20;101303.72;;;19.61;62.27
71504;BME280;59323;50.874;7.028;2022-10-16T14:34:53;101286.81;;;19.59;63.30
71504;BME280;59323;50.874;7.028;2022-10-16T14:37:26;101292.34;;;19.56;63.75
71504;BME280;59323;50.874;7.028;2022-10-16T14:39:53;101300.22;;;19.57;64.12